Time;durP1;ratioP1;P1;durP2;ratioP2;P2;SDS_P1;SDS_P2;PMS_P1;PMS_P2;Temp;Humidity;BMP_temperature;BMP_pressure;BME280_temperature;BME280_humidity;BME280_pressure;Samples;Min_cycle;Max_cycle;Signal;HPM_P1;HPM_P2
2021/11/01 00:02:16;;;;;;;28.45;17.15;;;;;;;11.71;74.41;99954.91;5049699;28;20110;-38
2021/11/01 00:04:44;;;;;;;32.60;17.42;;;;;;;11.68;74.12;99949.16;5050068;28;20029;-38
2021/11/01 00:07:10;;;;;;;34.22;18.23;;;;;;;11.50;74.69;99953.25;5050187;28;20029;-38
2021/11/01 00:09:36;;;;;;;28.98;17.58;;;;;;;11.66;74.18;99944.03;5050021;28;20028;-38
2021/11/01 00:12:01;;;;;;;28.35;17.65;;;;;;;11.58;73.90;99944.22;5050490;28;20381;-38
2021/11/01 00:14:27;;;;;;;28.90;16.73;;;;;;;11.68;74.33;99941.16;5050193;28;20369;-37
2021/11/01 00:16:53;;;;;;;32.35;18.40;;;;;;;11.46;73.98;99933.38;5050135;28;20037;-38
2021/11/01 00:19:18;;;;;;;29.73;17.23;;;;;;;11.39;74.56;99942.38;5048560;28;20028;-38
2021/11/01 00:21:44;;;;;;;32.45;17.55;;;;;;;11.48;74.19;99934.00;5049899;28;20036;-38
2021/11/01 00:24:09;;;;;;;31.83;18.00;;;;;;;11.43;74.31;99930.28;5050353;28;20408;-38
2021/11/01 00:26:35;;;;;;;34.60;18.02;;;;;;;11.37;74.52;99926.59;5050070;28;20047;-37
2021/11/01 00:29:05;;;;;;;30.83;18.55;;;;;;;11.27;74.16;99923.50;5049854;28;20029;-38
2021/11/01 00:31:31;;;;;;;32.40;18.90;;;;;;;11.27;74.59;99916.34;5049771;28;20090;-38
2021/11/01 00:33:56;;;;;;;34.38;18.65;;;;;;;11.18;74.94;99912.25;5049588;28;20060;-38
2021/11/01 00:36:22;;;;;;;30.20;18.08;;;;;;;10.87;76.20;99916.28;5049779;28;20040;-37
2021/11/01 00:38:48;;;;;;;31.92;18.15;;;;;;;10.82;76.30;99910.72;5049883;28;20108;-38
2021/11/01 00:41:15;;;;;;;33.55;19.58;;;;;;;10.82;75.75;99913.41;5049814;28;20136;-38
2021/11/01 00:43:40;;;;;;;32.58;19.33;;;;;;;10.71;75.85;99914.78;5048081;28;20146;-38
2021/11/01 00:46:06;;;;;;;33.13;19.17;;;;;;;10.92;75.03;99913.00;5049585;28;20488;-37
2021/11/01 00:48:31;;;;;;;34.60;19.20;;;;;;;11.08;74.00;99909.13;5049395;28;20076;-37
2021/11/01 00:50:57;;;;;;;34.72;19.05;;;;;;;10.99;74.88;99913.03;5048159;28;20499;-38
2021/11/01 00:53:28;;;;;;;30.92;18.95;;;;;;;10.77;75.04;99907.84;5049335;28;20556;-37
2021/11/01 00:55:54;;;;;;;32.00;18.80;;;;;;;10.73;75.25;99906.59;5048976;28;20037;-37
2021/11/01 00:58:23;;;;;;;33.35;18.60;;;;;;;10.84;74.44;99903.38;5048913;28;20028;-37
2021/11/01 01:00:49;;;;;;;31.85;18.25;;;;;;;10.82;74.16;99905.41;5049201;28;20060;-38
2021/11/01 01:03:14;;;;;;;34.15;18.73;;;;;;;10.52;75.79;99896.91;5047627;28;20053;-38
2021/11/01 01:05:42;;;;;;;32.50;18.52;;;;;;;10.33;76.39;99899.28;5049130;28;20025;-38
2021/11/01 01:08:08;;;;;;;32.55;19.27;;;;;;;10.28;77.16;99891.06;5048943;28;20032;-38
2021/11/01 01:10:33;;;;;;;32.53;18.58;;;;;;;10.47;75.84;99891.34;5049037;28;20025;-37
2021/11/01 01:12:59;;;;;;;33.53;18.02;;;;;;;10.49;75.67;99898.16;5048839;28;20410;-37
2021/11/01 01:15:27;;;;;;;33.25;18.42;;;;;;;10.68;74.47;99895.72;5048868;28;20036;-37
2021/11/01 01:17:52;;;;;;;32.55;18.15;;;;;;;10.48;75.10;99896.50;5048744;28;20039;-37
2021/11/01 01:20:19;;;;;;;35.67;19.38;;;;;;;10.46;75.11;99892.41;5048893;28;20037;-37
2021/11/01 01:22:45;;;;;;;35.55;18.20;;;;;;;10.44;75.75;99892.59;5048684;28;20098;-37
2021/11/01 01:27:46;;;;;;;33.30;18.50;;;;;;;10.15;76.54;99867.06;5047448;28;20496;-37
2021/11/01 01:30:12;;;;;;;33.63;17.75;;;;;;;10.64;73.94;99887.34;5048643;28;20056;-37
2021/11/01 01:32:38;;;;;;;31.10;17.52;;;;;;;10.37;75.06;99886.41;5048280;28;20525;-38
2021/11/01 01:35:03;;;;;;;28.88;17.15;;;;;;;10.20;76.04;99880.56;5048365;28;20025;-37
2021/11/01 01:37:29;;;;;;;28.98;16.67;;;;;;;9.99;76.06;99878.84;5048727;28;20045;-38
2021/11/01 01:39:54;;;;;;;28.48;16.38;;;;;;;10.05;75.05;99874.56;5048550;28;20116;-38
2021/11/01 01:42:20;;;;;;;29.13;16.00;;;;;;;9.91;75.68;99871.84;5048480;28;20392;-38
2021/11/01 01:44:45;;;;;;;27.77;15.93;;;;;;;9.85;75.41;99877.94;5048682;28;20021;-38
2021/11/01 01:47:11;;;;;;;32.50;16.48;;;;;;;10.01;75.03;99874.13;5048462;28;20021;-38
2021/11/01 01:49:36;;;;;;;29.10;16.70;;;;;;;10.08;75.56;99876.84;5048531;28;20041;-38
2021/11/01 01:52:03;;;;;;;29.38;16.17;;;;;;;10.26;74.40;99871.84;5048600;28;20025;-38
2021/11/01 01:54:28;;;;;;;29.70;15.98;;;;;;;10.25;74.29;99872.03;5048276;28;20087;-38
2021/11/01 01:56:54;;;;;;;31.42;16.63;;;;;;;10.23;74.36;99871.41;5049185;28;20037;-38
2021/11/01 01:59:20;;;;;;;31.00;16.70;;;;;;;10.19;74.20;99876.28;5052093;28;20027;-38
2021/11/01 02:01:46;;;;;;;28.88;16.08;;;;;;;10.17;73.79;99873.81;5051378;28;20029;-38
2021/11/01 02:04:14;;;;;;;29.77;16.30;;;;;;;10.12;74.13;99868.28;5050727;28;20086;-38
2021/11/01 02:07:09;;;;;;;27.80;16.20;;;;;;;10.16;74.12;99869.50;5050612;28;20350;-39
2021/11/01 02:10:03;;;;;;;27.67;15.65;;;;;;;10.02;74.11;99859.03;5037691;28;20540;-38
2021/11/01 02:12:37;;;;;;;27.35;16.20;;;;;;;10.11;73.63;99861.31;5051114;28;20025;-38
2021/11/01 02:15:17;;;;;;;31.20;16.65;;;;;;;10.26;73.24;99871.00;5050988;28;20078;-38
2021/11/01 02:17:43;;;;;;;27.02;15.20;;;;;;;10.15;73.67;99867.06;5051001;28;20029;-37
2021/11/01 02:20:11;;;;;;;28.55;16.63;;;;;;;10.56;71.67;99863.56;5050902;28;20047;-37
2021/11/01 02:23:14;;;;;;;32.40;17.45;;;;;;;10.33;71.91;99866.56;5050807;28;20044;-37
2021/11/01 02:25:45;;;;;;;;;;;;;;;10.21;72.67;99862.81;5033996;28;20037;-38
2021/11/01 02:28:13;;;;;;;29.63;15.90;;;;;;;10.03;73.17;99856.16;5052142;28;19909;-37
2021/11/01 02:30:39;;;;;;;28.55;15.18;;;;;;;10.05;72.31;99861.28;5050892;28;20090;-37
2021/11/01 02:33:05;;;;;;;29.13;15.50;;;;;;;9.94;73.14;99860.00;5052002;28;20049;-38
2021/11/01 02:35:31;;;;;;;28.75;16.40;;;;;;;9.91;73.49;99860.41;5050552;28;20037;-37
2021/11/01 02:37:58;;;;;;;27.63;15.85;;;;;;;10.16;72.13;99858.06;5051124;28;20484;-38
2021/11/01 02:40:29;;;;;;;31.17;17.38;;;;;;;9.87;73.23;99861.81;5052005;28;20036;-37
2021/11/01 02:42:55;;;;;;;30.00;16.48;;;;;;;9.76;73.25;99866.63;5051733;28;20082;-37
2021/11/01 02:45:21;;;;;;;29.08;16.08;;;;;;;9.69;74.11;99864.94;5052275;28;20013;-37
2021/11/01 02:47:46;;;;;;;30.08;16.38;;;;;;;9.85;73.22;99862.00;5050134;28;20506;-37
2021/11/01 02:50:13;;;;;;;31.25;17.10;;;;;;;9.77;73.61;99862.16;5051469;28;20086;-37
2021/11/01 02:52:39;;;;;;;30.63;16.80;;;;;;;9.85;73.16;99858.53;5051775;28;20053;-37
2021/11/01 02:55:06;;;;;;;33.55;18.02;;;;;;;9.91;72.83;99863.06;5051344;28;20048;-37
2021/11/01 02:57:32;;;;;;;31.40;18.55;;;;;;;9.55;74.25;99856.09;5051509;28;20044;-47
2021/11/01 02:59:57;;;;;;;32.47;17.25;;;;;;;9.69;74.24;99862.28;5051211;28;20033;-49
2021/11/01 03:02:23;;;;;;;28.42;16.52;;;;;;;9.55;74.39;99848.13;5051044;28;20032;-50
2021/11/01 03:04:49;;;;;;;32.20;18.80;;;;;;;9.58;74.38;99855.72;5050752;28;20024;-47
2021/11/01 03:07:15;;;;;;;33.13;19.40;;;;;;;9.74;73.68;99850.06;5050523;28;20025;-51
2021/11/01 03:09:41;;;;;;;32.97;19.98;;;;;;;9.49;74.87;99852.38;5048194;28;20098;-50
2021/11/01 03:12:08;;;;;;;32.95;19.08;;;;;;;9.43;75.02;99847.03;5049613;28;20025;-49
2021/11/01 03:14:40;;;;;;;37.67;19.13;;;;;;;9.48;74.62;99842.78;5049931;28;20025;-50
2021/11/01 03:17:07;;;;;;;36.55;20.83;;;;;;;9.46;75.28;99843.97;5034282;28;20119;-50
2021/11/01 03:19:33;;;;;;;39.30;20.65;;;;;;;9.47;75.30;99841.13;5033480;28;20051;-51
2021/11/01 03:22:00;;;;;;;38.10;20.75;;;;;;;9.46;75.43;99831.53;5033154;28;20469;-48
2021/11/01 03:24:26;;;;;;;36.80;21.23;;;;;;;9.52;74.47;99825.41;5049800;28;20354;-50
2021/11/01 03:26:52;;;;;;;38.83;20.83;;;;;;;9.43;75.32;99837.22;5032100;28;20037;-49
2021/11/01 03:29:17;;;;;;;38.67;21.20;;;;;;;9.38;74.88;99827.16;5049957;28;20025;-49
2021/11/01 03:31:43;;;;;;;36.70;22.08;;;;;;;9.52;75.20;99821.91;5032736;28;20392;-50
2021/11/01 03:34:08;;;;;;;39.72;21.73;;;;;;;9.30;75.93;99822.00;5032787;28;20048;-51
2021/11/01 03:36:34;;;;;;;38.40;21.15;;;;;;;9.14;76.37;99820.44;5050962;28;20123;-51
2021/11/01 03:39:01;;;;;;;36.25;20.58;;;;;;;9.31;75.87;99813.03;5032872;28;20451;-51
2021/11/01 03:41:27;;;;;;;37.88;21.13;;;;;;;9.17;77.01;99813.91;5049448;28;20033;-51
2021/11/01 03:43:59;;;;;;;40.63;21.85;;;;;;;9.16;76.95;99818.41;5049501;28;20021;-50
2021/11/01 03:46:31;;;;;;;36.55;21.77;;;;;;;9.41;75.98;99810.03;5049328;28;20028;-52
2021/11/01 03:48:56;;;;;;;42.53;21.90;;;;;;;9.49;75.64;99814.38;5033389;28;20040;-49
2021/11/01 03:54:02;;;;;;;42.22;21.83;;;;;;;9.00;77.25;99810.72;5049237;28;20051;-52
2021/11/01 03:56:28;;;;;;;38.80;22.15;;;;;;;9.03;77.31;99812.19;5050611;28;20492;-50
2021/11/01 03:58:54;;;;;;;43.28;22.58;;;;;;;9.13;77.82;99810.00;5049230;28;20032;-51
2021/11/01 04:01:20;;;;;;;37.83;22.27;;;;;;;9.09;77.40;99806.09;5050572;28;20500;-50
2021/11/01 04:03:45;;;;;;;41.85;23.33;;;;;;;9.06;77.11;99790.56;5050633;28;20033;-52
2021/11/01 04:06:11;;;;;;;42.08;22.83;;;;;;;9.22;76.71;99803.56;5050375;28;20021;-51
2021/11/01 04:08:36;;;;;;;45.22;25.23;;;;;;;9.18;76.71;99797.81;5050663;28;20044;-49
2021/11/01 04:11:02;;;;;;;104.63;50.75;;;;;;;8.95;77.97;99794.56;5050696;28;20021;-52
2021/11/01 04:13:27;;;;;;;81.55;44.03;;;;;;;8.91;78.02;99783.50;5050120;28;20484;-52
2021/11/01 04:16:00;;;;;;;77.30;41.10;;;;;;;8.99;77.84;99787.84;5048930;28;20051;-48
2021/11/01 04:18:35;;;;;;;70.47;36.15;;;;;;;8.91;78.20;99780.00;5050257;28;20028;-38
2021/11/01 04:21:05;;;;;;;44.67;23.70;;;;;;;8.84;78.31;99787.94;5049663;28;20074;-38
2021/11/01 04:23:32;;;;;;;44.95;21.92;;;;;;;8.91;77.99;99785.31;5050492;28;20016;-38
2021/11/01 04:26:00;;;;;;;41.85;21.60;;;;;;;9.05;77.36;99781.78;5049937;28;20350;-38
2021/11/01 04:28:26;;;;;;;43.67;21.88;;;;;;;9.04;76.82;99781.97;5050285;28;20020;-38
2021/11/01 04:30:58;;;;;;;41.42;22.20;;;;;;;9.12;76.75;99771.19;5049923;28;20028;-38
2021/11/01 04:33:25;;;;;;;42.00;21.90;;;;;;;9.07;76.81;99779.75;5050184;28;20100;-38
2021/11/01 04:35:51;;;;;;;39.88;21.65;;;;;;;8.94;77.32;99780.44;5050011;28;20057;-38
2021/11/01 04:41:11;;;;;;;41.10;22.50;;;;;;;9.08;76.71;99780.56;5050030;28;20025;-38
2021/11/01 04:54:21;;;;;;;37.17;20.70;;;;;;;10.61;75.85;99783.94;5047244;28;20063;-38
2021/11/01 04:56:46;;;;;;;37.13;21.98;;;;;;;10.40;71.07;99779.63;5049461;28;20051;-38
2021/11/01 04:59:12;;;;;;;39.78;22.35;;;;;;;9.92;72.34;99779.66;5049547;28;20017;-38
2021/11/01 05:01:41;;;;;;;35.70;21.85;;;;;;;9.55;73.20;99776.38;5049158;28;20429;-38
2021/11/01 05:04:08;;;;;;;40.45;21.98;;;;;;;9.47;74.74;99779.19;5048012;28;20487;-38
2021/11/01 05:06:36;;;;;;;41.13;22.80;;;;;;;9.14;75.59;99770.00;5049062;28;20028;-37
2021/11/01 05:09:11;;;;;;;43.00;22.92;;;;;;;8.78;76.87;99764.81;5049098;28;20143;-38
2021/11/01 05:14:03;;;;;;;44.20;21.98;;;;;;;8.54;78.34;99780.09;5048450;28;20021;-38
2021/11/01 05:16:53;;;;;;;41.40;21.48;;;;;;;8.46;77.98;99779.41;5048999;28;20036;-38
2021/11/01 05:19:27;;;;;;;37.75;20.88;;;;;;;8.45;78.44;99783.06;5048808;28;20562;-38
2021/11/01 05:24:41;;;;;;;38.92;19.77;;;;;;;8.29;79.09;99779.59;5048925;28;20120;-37
2021/11/01 05:29:32;;;;;;;38.13;20.65;;;;;;;8.26;79.61;99782.63;5047784;28;19999;-38
2021/11/01 05:32:03;;;;;;;39.35;20.95;;;;;;;8.41;78.55;99785.25;5047653;28;20029;-38
2021/11/01 05:34:29;;;;;;;40.22;21.65;;;;;;;9.04;80.22;99784.63;5041052;28;20041;-36
2021/11/01 05:36:54;;;;;;;35.67;21.08;;;;;;;9.10;76.16;99789.16;5033413;28;20026;-39
2021/11/01 05:39:20;;;;;;;39.33;22.52;;;;;;;9.24;75.28;99785.59;5032887;28;20021;-38
2021/11/01 05:41:45;;;;;;;45.67;26.77;;;;;;;9.22;76.30;99790.28;5032725;28;20025;-38
2021/11/01 05:44:11;;;;;;;41.40;22.88;;;;;;;9.44;76.79;99791.03;5032123;28;20022;-38
2021/11/01 05:46:38;;;;;;;39.22;21.10;;;;;;;9.55;76.25;99792.31;5031446;28;20032;-38
2021/11/01 05:49:05;;;;;;;39.45;22.80;;;;;;;9.76;75.50;99794.88;5032007;28;20025;-38
2021/11/01 05:51:31;;;;;;;39.42;21.10;;;;;;;9.68;76.01;99796.91;5030817;28;20064;-38
2021/11/01 05:54:00;;;;;;;37.97;21.33;;;;;;;9.82;75.56;99795.13;5043795;28;20070;-38
2021/11/01 06:04:48;;;;;;;44.47;23.40;;;;;;;10.77;70.83;99796.03;5051415;28;20033;-38
2021/11/01 06:14:58;;;;;;;55.88;33.13;;;;;;;12.46;64.16;99806.97;5052102;28;20028;-38
2021/11/01 06:17:24;;;;;;;35.58;19.77;;;;;;;12.38;63.76;99804.56;5051767;28;20370;-38
2021/11/01 06:19:49;;;;;;;29.58;18.70;;;;;;;12.43;63.87;99807.38;5051282;28;20020;-38
2021/11/01 06:22:15;;;;;;;33.92;19.48;;;;;;;12.58;63.64;99805.25;5051461;28;20418;-52
2021/11/01 06:24:51;;;;;;;52.85;32.13;;;;;;;12.34;64.42;99812.16;5051090;28;20109;-49
2021/11/01 06:27:18;;;;;;;37.40;21.88;;;;;;;12.11;64.42;99810.84;5050708;28;20060;-49
2021/11/01 06:30:33;;;;;;;33.20;20.08;;;;;;;11.98;65.65;99802.88;5050850;28;20033;-49
2021/11/01 06:32:34;;;;;;;35.00;19.00;;;;;;;11.63;66.21;99803.19;5042206;28;20151;-50
2021/11/01 06:40:30;;;;;;;104.20;57.45;;;;;;;11.31;67.41;99804.88;5048553;28;20131;-52
2021/11/01 06:50:57;;;;;;;40.20;23.55;;;;;;;10.84;69.43;99786.22;5048981;28;20031;-50
2021/11/01 06:56:14;;;;;;;33.20;19.40;;;;;;;10.88;68.59;99791.97;5049629;28;20025;-49
2021/11/01 07:14:04;;;;;;;31.80;19.83;;;;;;;11.00;68.11;99786.84;5049901;28;20071;-51
2021/11/01 07:14:12;;;;;;;34.95;19.90;;;;;;;11.09;67.39;99775.78;5050110;28;20139;-49
2021/11/01 07:15:31;;;;;;;34.80;19.20;;;;;;;12.69;62.77;99771.69;5049333;28;20044;-52
2021/11/01 08:20:59;;;;;;;30.33;19.25;;;;;;;16.91;52.11;99725.47;5048700;28;20039;-38
2021/11/01 08:29:18;;;;;;;27.75;18.15;;;;;;;17.85;50.31;99731.84;5064049;28;20089;-38
2021/11/01 08:37:17;;;;;;;27.85;16.98;;;;;;;17.23;50.55;99724.03;5054078;28;20430;-38
2021/11/01 09:26:52;;;;;;;25.13;15.98;;;;;;;18.00;47.05;99681.94;5064770;28;20065;-38
2021/11/01 09:29:42;;;;;;;25.75;16.17;;;;;;;18.22;46.32;99674.63;5061487;28;20095;-38
2021/11/01 09:42:54;;;;;;;19.42;14.35;;;;;;;17.88;46.86;99655.19;5058296;28;20130;-38
2021/11/01 09:45:21;;;;;;;21.73;14.93;;;;;;;18.79;44.51;99648.09;5053437;28;20064;-39
2021/11/01 09:47:47;;;;;;;20.17;13.80;;;;;;;18.40;44.93;99643.00;5051787;28;20033;-38
2021/11/01 09:50:17;;;;;;;20.15;13.90;;;;;;;18.26;45.32;99645.28;5050926;28;20025;-38
2021/11/01 09:52:47;;;;;;;21.20;13.85;;;;;;;17.52;47.08;99633.25;5051235;28;20055;-39
2021/11/01 10:00:41;;;;;;;18.73;13.75;;;;;;;17.49;47.30;99628.34;5050043;28;20051;-37
2021/11/01 10:03:07;;;;;;;19.80;13.60;;;;;;;17.35;47.63;99622.53;5050763;28;20416;-37
2021/11/01 10:05:35;;;;;;;21.58;14.70;;;;;;;17.24;47.57;99612.72;5050645;28;20025;-38
2021/11/01 10:08:01;;;;;;;20.30;15.23;;;;;;;17.45;47.49;99613.78;5049341;28;20039;-38
2021/11/01 10:10:30;;;;;;;22.65;14.80;;;;;;;17.75;46.44;99608.72;5050752;28;20036;-38
2021/11/01 10:12:55;;;;;;;21.75;15.20;;;;;;;17.67;47.58;99605.66;5052035;28;20036;-38
2021/11/01 10:18:14;;;;;;;23.00;14.45;;;;;;;17.23;48.16;99597.66;5051206;28;20032;-37
2021/11/01 10:20:45;;;;;;;20.60;14.48;;;;;;;17.20;48.22;99575.56;5051726;28;20025;-37
2021/11/01 10:23:43;;;;;;;21.80;14.25;;;;;;;17.19;47.80;99587.41;5051761;28;20389;-38
2021/11/01 10:26:17;;;;;;;19.48;13.93;;;;;;;17.25;48.01;99584.75;5050898;28;20073;-37
2021/11/01 10:28:53;;;;;;;23.45;15.98;;;;;;;17.11;48.47;99569.00;5050997;28;20060;-37
2021/11/01 10:31:21;;;;;;;24.25;15.63;;;;;;;17.28;49.01;99568.94;5049590;28;20025;-37
2021/11/01 10:33:47;;;;;;;20.63;14.07;;;;;;;17.41;48.10;99567.75;5050804;28;20488;-37
2021/11/01 10:36:26;;;;;;;21.15;14.40;;;;;;;17.44;47.91;99561.03;5051322;28;20052;-38
2021/11/01 10:38:59;;;;;;;22.25;14.68;;;;;;;17.22;48.36;99558.38;5050995;28;20025;-37
2021/11/01 10:41:39;;;;;;;20.42;14.32;;;;;;;17.38;48.28;99546.72;5051103;28;20025;-37
2021/11/01 10:44:38;;;;;;;23.77;14.93;;;;;;;17.45;48.08;99544.66;5051018;28;20047;-37
2021/11/01 11:11:47;;;;;;;21.27;13.63;;;;;;;17.91;46.42;99514.69;5050251;28;20124;-37
2021/11/01 11:14:29;;;;;;;19.75;13.45;;;;;;;17.62;47.31;99508.75;5050158;28;20044;-38
2021/11/01 11:27:32;;;;;;;22.25;13.40;;;;;;;17.72;46.83;99493.50;5049917;28;20068;-38
2021/11/01 11:33:54;;;;;;;20.63;13.40;;;;;;;18.27;45.48;99496.91;5050247;28;20056;-38
2021/11/01 11:49:28;;;;;;;25.63;14.05;;;;;;;17.57;47.39;99477.22;5049902;28;20032;-38
2021/11/01 11:51:59;;;;;;;21.17;13.75;;;;;;;17.87;47.18;99482.09;5048635;28;20025;-38
2021/11/01 11:54:34;;;;;;;24.23;13.77;;;;;;;17.72;47.50;99471.16;5049586;28;20481;-37
2021/11/01 11:57:04;;;;;;;22.75;14.30;;;;;;;17.86;47.07;99469.72;5049591;28;20500;-38
2021/11/01 11:59:36;;;;;;;21.45;13.68;;;;;;;17.99;46.82;99468.44;5048124;28;20052;-38
2021/11/01 12:02:08;;;;;;;23.95;14.52;;;;;;;17.97;47.02;99467.88;5049792;28;20404;-38
2021/11/01 12:04:37;;;;;;;23.40;13.75;;;;;;;17.79;46.82;99461.81;5049549;28;20028;-38
2021/11/01 12:07:07;;;;;;;21.33;14.65;;;;;;;17.93;47.11;99461.41;5049475;28;20126;-38
2021/11/01 12:17:19;;;;;;;21.52;13.50;;;;;;;18.19;46.17;99454.31;5049193;28;20112;-37
2021/11/01 12:19:44;;;;;;;24.48;14.25;;;;;;;18.16;46.79;99449.44;5049249;28;20111;-37
2021/11/01 12:22:20;;;;;;;20.63;14.18;;;;;;;18.09;46.74;99455.06;5049174;28;20459;-37
2021/11/01 12:24:47;;;;;;;24.38;13.88;;;;;;;17.98;46.84;99446.09;5049392;28;20020;-38
2021/11/01 12:27:13;;;;;;;21.30;14.10;;;;;;;18.04;47.10;99446.13;5048457;28;20029;-38
2021/11/01 12:29:39;;;;;;;24.90;14.77;;;;;;;18.27;46.62;99445.72;5048851;28;20520;-38
2021/11/01 12:32:08;;;;;;;20.17;14.02;;;;;;;18.12;46.92;99442.94;5048568;28;20060;-39
2021/11/01 12:34:39;;;;;;;21.33;14.48;;;;;;;17.72;47.80;99446.94;5048629;28;20120;-38
2021/11/01 12:37:10;;;;;;;22.65;13.90;;;;;;;17.64;48.16;99437.47;5049059;28;20100;-38
2021/11/01 12:39:39;;;;;;;23.00;15.00;;;;;;;17.70;48.47;99439.13;5048935;28;20440;-38
2021/11/01 12:57:45;;;;;;;22.95;14.38;;;;;;;17.77;48.05;99426.28;5049243;28;20108;-38
2021/11/01 13:00:12;;;;;;;26.90;15.63;;;;;;;17.94;47.43;99428.84;5049468;28;20108;-37
2021/11/01 13:02:44;;;;;;;22.65;15.38;;;;;;;17.74;48.10;99423.28;5048535;28;20017;-37
2021/11/01 13:05:17;;;;;;;22.80;14.77;;;;;;;17.68;48.69;99427.81;5048687;28;20051;-37
2021/11/01 13:10:23;;;;;;;24.92;15.90;;;;;;;17.63;48.61;99430.50;5048729;28;20033;-37
2021/11/01 13:20:43;;;;;;;27.48;16.88;;;;;;;17.93;48.58;99418.31;5040200;28;20044;-37
2021/11/01 13:23:10;;;;;;;24.83;16.58;;;;;;;17.93;48.72;99416.47;5048410;28;20025;-37
2021/11/01 13:25:46;;;;;;;25.20;16.17;;;;;;;17.87;48.70;99416.69;5048157;28;20080;-37
2021/11/01 13:28:27;;;;;;;24.83;16.38;;;;;;;18.46;47.07;99423.72;5048176;28;20029;-37
2021/11/01 13:36:49;;;;;;;25.33;16.88;;;;;;;17.57;48.90;99424.25;5048941;28;20102;-38
2021/11/01 13:39:28;;;;;;;25.23;16.48;;;;;;;17.72;52.19;99422.72;5049027;28;20028;-38
2021/11/01 13:41:54;;;;;;;30.75;17.23;;;;;;;17.51;49.75;99422.56;5047885;28;20108;-38
2021/11/01 13:44:24;;;;;;;25.67;16.15;;;;;;;17.44;49.91;99419.31;5047201;28;20565;-39
2021/11/01 13:46:58;;;;;;;26.98;15.93;;;;;;;17.16;50.71;99421.19;5047146;28;20031;-39
2021/11/01 13:49:28;;;;;;;27.58;16.88;;;;;;;17.16;51.33;99413.13;5047066;28;20029;-38
2021/11/01 13:51:53;;;;;;;23.75;15.70;;;;;;;17.44;50.18;99410.41;5047794;28;20017;-37
2021/11/01 13:56:50;;;;;;;27.13;16.95;;;;;;;17.14;51.85;99401.84;5051578;28;20033;-38
2021/11/01 14:26:47;;;;;;;23.80;15.93;;;;;;;16.41;54.03;99403.97;5051698;28;20039;-38
2021/11/01 14:30:18;;;;;;;22.98;16.25;;;;;;;16.37;54.12;99401.00;5051564;28;20031;-39
2021/11/01 14:56:56;;;;;;;25.52;17.20;;;;;;;15.80;55.60;99395.91;5051686;28;20035;-38
2021/11/01 15:14:52;;;;;;;28.92;18.08;;;;;;;15.44;57.43;99400.72;5050178;28;20025;-39
2021/11/01 15:17:19;;;;;;;31.63;18.33;;;;;;;15.36;57.64;99406.47;5049230;28;20094;-38
2021/11/01 16:19:41;;;;;;;49.53;27.38;;;;;;;14.26;62.19;99428.75;5018724;28;20044;-38
2021/11/01 16:22:11;;;;;;;52.35;28.45;;;;;;;14.25;62.18;99429.00;5031162;28;20025;-38
2021/11/01 16:24:37;;;;;;;46.53;26.00;;;;;;;14.39;61.55;99427.69;5030976;28;20053;-38
2021/11/01 16:27:03;;;;;;;43.17;24.33;;;;;;;14.11;62.63;99422.25;5030640;28;20060;-39
2021/11/01 16:30:17;;;;;;;41.92;24.02;;;;;;;14.02;62.77;99414.59;5046098;28;20112;-37
2021/11/01 16:32:59;;;;;;;47.17;24.67;;;;;;;13.93;63.31;99432.03;5035828;28;20070;-37
2021/11/01 16:35:06;;;;;;;45.95;24.17;;;;;;;13.74;63.58;99431.31;5029830;28;20053;-37
2021/11/01 16:37:44;;;;;;;46.05;22.83;;;;;;;13.92;63.65;99430.41;5030425;28;20046;-38
2021/11/01 16:40:11;;;;;;;36.92;21.33;;;;;;;13.71;64.23;99431.81;5030647;28;20029;-38
2021/11/01 16:42:38;;;;;;;43.60;22.83;;;;;;;13.69;63.78;99440.06;5039189;28;20036;-38
2021/11/01 16:45:18;;;;;;;45.78;22.65;;;;;;;13.35;65.10;99438.97;5057183;28;20074;-38
2021/11/01 16:47:44;;;;;;;37.50;22.13;;;;;;;13.37;64.96;99441.41;5030121;28;20032;-38
2021/11/01 16:50:10;;;;;;;44.45;23.08;;;;;;;13.21;65.52;99438.31;5049474;28;20025;-39
2021/11/01 16:52:39;;;;;;;42.67;23.08;;;;;;;13.14;66.15;99442.94;5059494;28;20076;-38
2021/11/01 16:55:12;;;;;;;41.72;22.98;;;;;;;13.19;65.44;99435.03;5043673;28;20032;-38
2021/11/01 16:57:45;;;;;;;45.97;24.20;;;;;;;13.31;67.27;99443.13;5035115;28;20033;-38
2021/11/01 17:30:06;;;;;;;47.42;26.63;;;;;;;12.44;69.19;99449.56;5052647;28;20044;-38
2021/11/01 18:41:39;;;;;;;52.33;27.10;;;;;;;12.91;74.09;99471.19;5052077;28;20134;-49
2021/11/01 18:51:49;;;;;;;60.90;29.55;;;;;;;13.01;73.17;99475.16;5051860;28;20044;-52
2021/11/01 18:54:21;;;;;;;63.33;31.55;;;;;;;12.96;73.40;99483.03;5051296;28;20029;-48
2021/11/01 18:56:47;;;;;;;62.55;33.63;;;;;;;12.97;73.36;99482.81;5034529;28;20095;-50
2021/11/01 18:59:12;;;;;;;60.40;32.00;;;;;;;12.71;74.74;99478.63;5051304;28;20021;-50
2021/11/01 19:01:39;;;;;;;57.08;30.55;;;;;;;12.64;74.50;99480.53;5051407;28;20440;-49
2021/11/01 19:04:45;;;;;;;57.40;30.67;;;;;;;12.68;75.11;99476.41;5050238;28;20045;-49
2021/11/01 19:07:12;;;;;;;54.85;30.15;;;;;;;12.79;74.42;99474.81;5051748;28;20102;-50
2021/11/01 19:13:12;;;;;;;62.80;32.10;;;;;;;12.60;74.75;99476.69;5051399;28;20413;-52
2021/11/01 21:26:21;;;;;;;72.95;33.65;;;;;;;11.24;75.91;99485.22;5029933;28;20441;-39
2021/11/01 21:28:51;;;;;;;65.47;33.75;;;;;;;11.22;76.77;99479.28;5039695;28;20435;-39
2021/11/01 21:31:19;;;;;;;65.68;33.92;;;;;;;11.15;76.98;99473.16;5066301;28;20529;-39
2021/11/01 21:33:47;;;;;;;66.25;33.42;;;;;;;11.34;75.62;99472.22;5064200;28;20044;-39
2021/11/01 21:36:16;;;;;;;67.05;31.05;;;;;;;11.27;75.38;99466.16;5058183;28;20167;-39
2021/11/01 21:38:42;;;;;;;64.90;31.40;;;;;;;11.37;73.98;99468.34;5033402;28;20427;-40
2021/11/01 21:41:07;;;;;;;60.10;31.17;;;;;;;11.14;74.59;99464.38;5032023;28;20108;-38
2021/11/01 21:43:33;;;;;;;59.92;32.38;;;;;;;11.15;73.58;99460.66;5034314;28;20512;-38
2021/11/01 21:45:59;;;;;;;61.50;31.17;;;;;;;11.11;73.78;99451.47;5053369;28;20028;-38
2021/11/01 21:48:25;;;;;;;60.45;31.90;;;;;;;11.16;74.04;99450.84;5053450;28;20119;-39
2021/11/01 21:50:50;;;;;;;59.13;30.90;;;;;;;11.23;72.68;99448.97;5053332;28;20444;-39
2021/11/01 21:53:19;;;;;;;56.33;30.52;;;;;;;11.14;72.57;99442.25;5053182;28;20028;-39
2021/11/01 21:55:45;;;;;;;56.47;31.10;;;;;;;11.13;73.22;99438.75;5052841;28;20044;-38
2021/11/01 22:20:18;;;;;;;55.92;30.50;;;;;;;10.82;76.11;99431.56;5029750;28;20420;-38
2021/11/01 22:23:36;;;;;;;62.20;31.60;;;;;;;10.82;76.30;99426.25;5052226;28;20020;-38
2021/11/01 22:25:42;;;;;;;62.13;31.77;;;;;;;11.08;75.59;99437.75;5045435;28;20104;-38
2021/11/01 22:58:03;;;;;;;62.88;32.33;;;;;;;11.57;72.52;99382.91;5052109;28;20031;-38
2021/11/01 23:00:35;;;;;;;65.13;33.45;;;;;;;11.61;72.96;99372.63;5050852;28;20020;-38
2021/11/01 23:03:14;;;;;;;64.90;32.83;;;;;;;11.35;73.10;99375.31;5051974;28;20029;-38
2021/11/01 23:32:57;;;;;;;69.53;35.80;;;;;;;11.48;72.30;99358.41;5031435;28;20052;-37
2021/11/01 23:35:22;;;;;;;66.70;35.45;;;;;;;11.42;72.62;99350.44;5031250;28;20022;-38
2021/11/01 23:37:48;;;;;;;70.45;36.05;;;;;;;11.43;71.18;99347.56;5031364;28;20025;-37
2021/11/01 23:40:13;;;;;;;66.57;36.15;;;;;;;11.27;71.70;99337.44;5031384;28;20401;-38
2021/11/01 23:42:39;;;;;;;67.25;35.15;;;;;;;11.05;73.79;99339.69;5031329;28;20079;-38
2021/11/01 23:45:05;;;;;;;67.28;35.35;;;;;;;11.30;72.62;99342.34;5031268;28;20512;-38
2021/11/01 23:47:31;;;;;;;67.60;36.08;;;;;;;11.30;72.24;99342.34;5031299;28;20468;-37
2021/11/01 23:49:56;;;;;;;64.35;34.75;;;;;;;11.10;72.43;99339.84;5031146;28;20025;-37
2021/11/01 23:52:23;;;;;;;67.22;34.65;;;;;;;10.89;72.28;99336.53;5031233;28;20025;-38
2021/11/01 23:54:49;;;;;;;72.72;37.05;;;;;;;10.83;72.59;99342.69;5031060;28;20406;-38
2021/11/01 23:57:15;;;;;;;65.13;34.92;;;;;;;10.89;72.58;99341.84;5030910;28;20500;-38
2021/11/01 23:59:44;;;;;;;58.50;33.03;;;;;;;10.80;71.29;99343.13;5030801;28;20021;-38
